Terminal Aerodrome Forecast
Issued by NWS Grand Forks, ND

Home | Current Version | Previous Version | Graphics & Text | Print | Product List | Glossary On
Versions: 1 2 3 4 5 6 7 8 9 10 11 12 13 14 15 16 17 18 19 20 21
000
FTUS43 KFGF 181720
TAFGFK
TAF
KGFK 181720Z 1818/1918 29009KT P6SM SCT150
     FM190000 VRB04KT P6SM BKN150
     FM190900 08008KT P6SM BKN050
     FM191400 11011KT P6SM OVC035=

USA.gov is the U.S. government's official web portal to all federal, state and local government web resources and services.